sensor_id;sensor_type;location;lat;lon;timestamp;pressure;altitude;pressure_sealevel;temperature;humidity
79729;BME280;69218;52.132;5.418;2023-07-09T00:01:26;101800.84;;;21.69;67.96
79729;BME280;69218;52.132;5.418;2023-07-09T00:03:52;101797.53;;;21.67;66.13
79729;BME280;69218;52.132;5.418;2023-07-09T00:06:20;101801.69;;;21.70;68.26
79729;BME280;69218;52.132;5.418;2023-07-09T00:08:48;101799.00;;;21.70;66.43
79729;BME280;69218;52.132;5.418;2023-07-09T00:11:16;101804.19;;;21.71;69.63
79729;BME280;69218;52.132;5.418;2023-07-09T00:13:43;101797.34;;;21.69;68.46
79729;BME280;69218;52.132;5.418;2023-07-09T00:16:17;101805.53;;;21.67;66.41
79729;BME280;69218;52.132;5.418;2023-07-09T00:18:45;101815.56;;;21.65;69.64
79729;BME280;69218;52.132;5.418;2023-07-09T00:21:20;101814.56;;;21.58;68.86
79729;BME280;69218;52.132;5.418;2023-07-09T00:23:47;101818.25;;;21.57;67.45
79729;BME280;69218;52.132;5.418;2023-07-09T00:26:16;101819.41;;;21.54;69.83
79729;BME280;69218;52.132;5.418;2023-07-09T00:28:43;101822.25;;;21.53;70.09
79729;BME280;69218;52.132;5.418;2023-07-09T00:31:12;101819.41;;;21.46;69.91
79729;BME280;69218;52.132;5.418;2023-07-09T00:33:43;101822.91;;;21.47;68.47
79729;BME280;69218;52.132;5.418;2023-07-09T00:36:28;101824.28;;;21.43;71.65
79729;BME280;69218;52.132;5.418;2023-07-09T00:38:57;101824.94;;;21.36;73.00
79729;BME280;69218;52.132;5.418;2023-07-09T00:41:26;101830.28;;;21.28;71.49
79729;BME280;69218;52.132;5.418;2023-07-09T00:43:54;101830.59;;;21.25;69.27
79729;BME280;69218;52.132;5.418;2023-07-09T00:48:57;101828.59;;;21.19;71.80
79729;BME280;69218;52.132;5.418;2023-07-09T00:51:26;101830.25;;;21.12;73.20
79729;BME280;69218;52.132;5.418;2023-07-09T00:53:55;101834.59;;;21.13;71.35
79729;BME280;69218;52.132;5.418;2023-07-09T00:56:42;101842.75;;;21.11;73.14
79729;BME280;69218;52.132;5.418;2023-07-09T00:59:14;101840.44;;;21.08;71.21
79729;BME280;69218;52.132;5.418;2023-07-09T01:01:42;101846.59;;;21.09;70.80
79729;BME280;69218;52.132;5.418;2023-07-09T01:04:10;101840.56;;;21.07;71.33
79729;BME280;69218;52.132;5.418;2023-07-09T01:06:45;101839.25;;;21.03;71.57
79729;BME280;69218;52.132;5.418;2023-07-09T01:09:14;101836.09;;;20.99;73.63
79729;BME280;69218;52.132;5.418;2023-07-09T01:11:41;101841.09;;;20.94;71.96
79729;BME280;69218;52.132;5.418;2023-07-09T01:14:10;101834.41;;;20.90;74.00
79729;BME280;69218;52.132;5.418;2023-07-09T01:16:41;101824.09;;;20.87;73.71
79729;BME280;69218;52.132;5.418;2023-07-09T01:19:09;101828.44;;;20.80;72.23
79729;BME280;69218;52.132;5.418;2023-07-09T01:21:35;101823.94;;;20.80;72.39
79729;BME280;69218;52.132;5.418;2023-07-09T01:24:13;101826.41;;;20.82;71.00
79729;BME280;69218;52.132;5.418;2023-07-09T01:26:40;101823.75;;;20.82;69.95
79729;BME280;69218;52.132;5.418;2023-07-09T01:29:07;101827.59;;;20.79;74.68
79729;BME280;69218;52.132;5.418;2023-07-09T01:31:33;101836.06;;;20.75;72.99
79729;BME280;69218;52.132;5.418;2023-07-09T01:34:02;101831.06;;;20.72;74.10
79729;BME280;69218;52.132;5.418;2023-07-09T01:36:28;101828.25;;;20.65;75.75
79729;BME280;69218;52.132;5.418;2023-07-09T01:38:56;101840.22;;;20.61;74.70
79729;BME280;69218;52.132;5.418;2023-07-09T01:41:23;101827.53;;;20.55;75.82
79729;BME280;69218;52.132;5.418;2023-07-09T01:43:49;101833.03;;;20.53;73.21
79729;BME280;69218;52.132;5.418;2023-07-09T01:46:16;101829.19;;;20.56;70.88
79729;BME280;69218;52.132;5.418;2023-07-09T01:48:43;101836.69;;;20.52;71.43
79729;BME280;69218;52.132;5.418;2023-07-09T01:51:13;101839.66;;;20.49;73.11
79729;BME280;69218;52.132;5.418;2023-07-09T01:53:40;101840.66;;;20.48;73.18
79729;BME280;69218;52.132;5.418;2023-07-09T01:56:07;101844.69;;;20.44;72.04
79729;BME280;69218;52.132;5.418;2023-07-09T01:58:34;101844.94;;;20.41;73.51
79729;BME280;69218;52.132;5.418;2023-07-09T02:01:01;101843.63;;;20.37;76.44
79729;BME280;69218;52.132;5.418;2023-07-09T02:03:28;101850.09;;;20.35;75.87
79729;BME280;69218;52.132;5.418;2023-07-09T02:05:55;101839.06;;;20.29;75.73
79729;BME280;69218;52.132;5.418;2023-07-09T02:08:24;101848.22;;;20.27;73.05
79729;BME280;69218;52.132;5.418;2023-07-09T02:10:51;101846.22;;;20.29;73.18
79729;BME280;69218;52.132;5.418;2023-07-09T02:13:17;101841.25;;;20.26;76.73
79729;BME280;69218;52.132;5.418;2023-07-09T02:15:44;101846.91;;;20.23;72.99
79729;BME280;69218;52.132;5.418;2023-07-09T02:18:12;101846.56;;;20.26;71.00
79729;BME280;69218;52.132;5.418;2023-07-09T02:20:39;101848.22;;;20.27;76.31
79729;BME280;69218;52.132;5.418;2023-07-09T02:23:08;101852.22;;;20.23;75.21
79729;BME280;69218;52.132;5.418;2023-07-09T02:25:35;101840.56;;;20.24;71.49
79729;BME280;69218;52.132;5.418;2023-07-09T02:28:01;101832.59;;;20.24;72.54
79729;BME280;69218;52.132;5.418;2023-07-09T02:30:28;101836.25;;;20.23;75.91
79729;BME280;69218;52.132;5.418;2023-07-09T02:32:54;101842.88;;;20.19;77.17
79729;BME280;69218;52.132;5.418;2023-07-09T02:35:22;101839.84;;;20.14;76.33
79729;BME280;69218;52.132;5.418;2023-07-09T02:37:48;101834.53;;;20.14;73.17
79729;BME280;69218;52.132;5.418;2023-07-09T02:40:16;101839.84;;;20.14;71.95
79729;BME280;69218;52.132;5.418;2023-07-09T02:42:42;101838.03;;;20.14;73.22
79729;BME280;69218;52.132;5.418;2023-07-09T02:45:09;101843.69;;;20.11;73.27
79729;BME280;69218;52.132;5.418;2023-07-09T02:47:36;101833.50;;;20.07;73.94
79729;BME280;69218;52.132;5.418;2023-07-09T02:50:03;101838.31;;;20.03;74.73
79729;BME280;69218;52.132;5.418;2023-07-09T02:52:30;101835.97;;;20.00;74.67
79729;BME280;69218;52.132;5.418;2023-07-09T02:54:56;101843.13;;;19.99;74.67
79729;BME280;69218;52.132;5.418;2023-07-09T02:57:23;101841.78;;;19.95;73.76
79729;BME280;69218;52.132;5.418;2023-07-09T02:59:50;101841.09;;;19.93;77.35
79729;BME280;69218;52.132;5.418;2023-07-09T03:02:16;101840.75;;;19.88;75.75
79729;BME280;69218;52.132;5.418;2023-07-09T03:04:43;101845.53;;;19.85;77.03
79729;BME280;69218;52.132;5.418;2023-07-09T03:07:09;101842.50;;;19.80;72.96
79729;BME280;69218;52.132;5.418;2023-07-09T03:09:36;101846.00;;;19.80;75.73
79729;BME280;69218;52.132;5.418;2023-07-09T03:12:02;101848.84;;;19.79;77.04
79729;BME280;69218;52.132;5.418;2023-07-09T03:14:29;101846.66;;;19.74;78.01
79729;BME280;69218;52.132;5.418;2023-07-09T03:16:56;101842.63;;;19.70;77.24
79729;BME280;69218;52.132;5.418;2023-07-09T03:19:22;101848.94;;;19.69;77.30
79729;BME280;69218;52.132;5.418;2023-07-09T03:21:49;101849.13;;;19.67;76.08
79729;BME280;69218;52.132;5.418;2023-07-09T03:24:15;101843.78;;;19.67;75.96
79729;BME280;69218;52.132;5.418;2023-07-09T03:26:46;101839.59;;;19.65;76.51
79729;BME280;69218;52.132;5.418;2023-07-09T03:29:13;101848.28;;;19.67;76.17
79729;BME280;69218;52.132;5.418;2023-07-09T03:31:40;101851.63;;;19.69;73.13
79729;BME280;69218;52.132;5.418;2023-07-09T03:34:06;101847.97;;;19.70;76.58
79729;BME280;69218;52.132;5.418;2023-07-09T03:36:33;101850.94;;;19.67;77.18
79729;BME280;69218;52.132;5.418;2023-07-09T03:38:59;101851.25;;;19.64;77.43
79729;BME280;69218;52.132;5.418;2023-07-09T03:41:26;101844.78;;;19.66;74.06
79729;BME280;69218;52.132;5.418;2023-07-09T03:43:52;101854.06;;;19.62;75.59
79729;BME280;69218;52.132;5.418;2023-07-09T03:46:20;101854.91;;;19.63;77.10
79729;BME280;69218;52.132;5.418;2023-07-09T03:48:47;101856.88;;;19.61;77.77
79729;BME280;69218;52.132;5.418;2023-07-09T03:51:13;101848.06;;;19.60;74.97
79729;BME280;69218;52.132;5.418;2023-07-09T03:53:40;101856.56;;;19.64;77.41
79729;BME280;69218;52.132;5.418;2023-07-09T03:56:07;101853.22;;;19.62;77.13
79729;BME280;69218;52.132;5.418;2023-07-09T03:58:35;101859.38;;;19.62;76.78
79729;BME280;69218;52.132;5.418;2023-07-09T04:01:03;101854.06;;;19.62;77.64
79729;BME280;69218;52.132;5.418;2023-07-09T04:03:29;101862.22;;;19.61;79.01
79729;BME280;69218;52.132;5.418;2023-07-09T04:05:56;101862.22;;;19.61;77.12
79729;BME280;69218;52.132;5.418;2023-07-09T04:08:22;101853.22;;;19.62;78.51
79729;BME280;69218;52.132;5.418;2023-07-09T04:10:49;101863.88;;;19.62;78.70
79729;BME280;69218;52.132;5.418;2023-07-09T04:13:16;101864.53;;;19.64;77.66
79729;BME280;69218;52.132;5.418;2023-07-09T04:15:43;101867.88;;;19.66;77.68
79729;BME280;69218;52.132;5.418;2023-07-09T04:18:10;101864.38;;;19.65;78.97
79729;BME280;69218;52.132;5.418;2023-07-09T04:20:37;101861.72;;;19.65;75.99
79729;BME280;69218;52.132;5.418;2023-07-09T04:23:03;101856.94;;;19.69;76.95
79729;BME280;69218;52.132;5.418;2023-07-09T04:25:30;101858.28;;;19.73;78.79
79729;BME280;69218;52.132;5.418;2023-07-09T04:27:57;101863.31;;;19.76;78.13
79729;BME280;69218;52.132;5.418;2023-07-09T04:30:24;101863.97;;;19.78;77.88
79729;BME280;69218;52.132;5.418;2023-07-09T04:32:50;101862.69;;;19.82;76.49
79729;BME280;69218;52.132;5.418;2023-07-09T04:35:17;101860.50;;;19.86;75.27
79729;BME280;69218;52.132;5.418;2023-07-09T04:37:43;101859.88;;;19.92;75.89
79729;BME280;69218;52.132;5.418;2023-07-09T04:40:12;101862.91;;;19.97;73.23
79729;BME280;69218;52.132;5.418;2023-07-09T04:42:39;101870.28;;;20.03;73.46
79729;BME280;69218;52.132;5.418;2023-07-09T04:45:07;101861.66;;;20.09;77.33
79729;BME280;69218;52.132;5.418;2023-07-09T04:47:36;101862.31;;;20.11;77.68
79729;BME280;69218;52.132;5.418;2023-07-09T04:50:04;101861.16;;;20.14;75.91
79729;BME280;69218;52.132;5.418;2023-07-09T04:52:31;101861.19;;;20.22;78.03
79729;BME280;69218;52.132;5.418;2023-07-09T04:54:58;101863.38;;;20.26;75.46
79729;BME280;69218;52.132;5.418;2023-07-09T04:57:26;101865.56;;;20.31;76.42
79729;BME280;69218;52.132;5.418;2023-07-09T04:59:56;101860.44;;;20.38;74.39
79729;BME280;69218;52.132;5.418;2023-07-09T05:02:23;101856.16;;;20.45;72.73
79729;BME280;69218;52.132;5.418;2023-07-09T05:04:50;101855.53;;;20.51;77.04
79729;BME280;69218;52.132;5.418;2023-07-09T05:07:16;101853.00;;;20.57;77.74
79729;BME280;69218;52.132;5.418;2023-07-09T05:09:43;101842.69;;;20.63;76.08
79729;BME280;69218;52.132;5.418;2023-07-09T05:12:10;101846.22;;;20.71;74.48
79729;BME280;69218;52.132;5.418;2023-07-09T05:14:36;101848.06;;;20.79;76.33
79729;BME280;69218;52.132;5.418;2023-07-09T05:17:03;101848.22;;;20.85;78.01
79729;BME280;69218;52.132;5.418;2023-07-09T05:19:31;101852.06;;;20.91;76.38
79729;BME280;69218;52.132;5.418;2023-07-09T05:21:57;101849.75;;;20.96;78.67
79729;BME280;69218;52.132;5.418;2023-07-09T05:24:24;101853.59;;;21.02;77.83
79729;BME280;69218;52.132;5.418;2023-07-09T05:26:54;101851.09;;;21.08;78.05
79729;BME280;69218;52.132;5.418;2023-07-09T05:29:20;101847.44;;;21.18;78.41
79729;BME280;69218;52.132;5.418;2023-07-09T05:31:47;101851.28;;;21.31;76.83
79729;BME280;69218;52.132;5.418;2023-07-09T05:34:13;101846.09;;;21.46;76.74
79729;BME280;69218;52.132;5.418;2023-07-09T05:36:40;101844.41;;;21.61;76.25
79729;BME280;69218;52.132;5.418;2023-07-09T05:39:07;101853.06;;;21.80;75.22
79729;BME280;69218;52.132;5.418;2023-07-09T05:41:33;101849.00;;;21.92;75.42
79729;BME280;69218;52.132;5.418;2023-07-09T05:44:00;101849.81;;;22.01;75.95
79729;BME280;69218;52.132;5.418;2023-07-09T05:46:27;101850.78;;;22.08;76.22
79729;BME280;69218;52.132;5.418;2023-07-09T05:48:53;101848.59;;;22.19;75.81
79729;BME280;69218;52.132;5.418;2023-07-09T05:51:23;101858.25;;;22.29;75.50
79729;BME280;69218;52.132;5.418;2023-07-09T05:53:50;101862.72;;;22.36;75.52
79729;BME280;69218;52.132;5.418;2023-07-09T05:56:18;101861.84;;;22.44;75.30
79729;BME280;69218;52.132;5.418;2023-07-09T05:58:44;101870.47;;;22.54;75.56
79729;BME280;69218;52.132;5.418;2023-07-09T06:01:11;101864.41;;;22.60;74.64
79729;BME280;69218;52.132;5.418;2023-07-09T06:03:38;101869.19;;;22.73;75.10
79729;BME280;69218;52.132;5.418;2023-07-09T06:06:06;101865.28;;;22.84;74.63
79729;BME280;69218;52.132;5.418;2023-07-09T06:08:32;101861.56;;;22.93;75.89
79729;BME280;69218;52.132;5.418;2023-07-09T06:11:02;101865.84;;;23.02;73.58
79729;BME280;69218;52.132;5.418;2023-07-09T06:13:30;101865.44;;;23.13;73.08
79729;BME280;69218;52.132;5.418;2023-07-09T06:15:58;101872.19;;;23.24;71.55
79729;BME280;69218;52.132;5.418;2023-07-09T06:18:26;101872.78;;;23.34;70.81
79729;BME280;69218;52.132;5.418;2023-07-09T06:20:59;101871.50;;;23.45;69.31
79729;BME280;69218;52.132;5.418;2023-07-09T06:23:27;101873.94;;;23.54;69.60
79729;BME280;69218;52.132;5.418;2023-07-09T06:25:53;101874.50;;;23.65;69.40
79729;BME280;69218;52.132;5.418;2023-07-09T06:28:22;101869.06;;;23.73;69.28
79729;BME280;69218;52.132;5.418;2023-07-09T06:30:49;101869.47;;;23.84;69.03
79729;BME280;69218;52.132;5.418;2023-07-09T06:33:17;101870.81;;;23.95;68.04
79729;BME280;69218;52.132;5.418;2023-07-09T06:35:54;101879.03;;;24.08;70.70
79729;BME280;69218;52.132;5.418;2023-07-09T06:38:22;101877.56;;;24.21;68.75
79729;BME280;69218;52.132;5.418;2023-07-09T06:40:48;101880.78;;;24.31;67.28
79729;BME280;69218;52.132;5.418;2023-07-09T06:43:15;101879.69;;;24.40;67.85
79729;BME280;69218;52.132;5.418;2023-07-09T06:45:57;101876.16;;;24.54;67.73
79729;BME280;69218;52.132;5.418;2023-07-09T06:48:25;101879.16;;;24.66;66.74
79729;BME280;69218;52.132;5.418;2023-07-09T06:50:54;101885.13;;;24.83;68.41
79729;BME280;69218;52.132;5.418;2023-07-09T06:53:22;101880.72;;;24.97;66.80
79729;BME280;69218;52.132;5.418;2023-07-09T06:55:49;101885.22;;;25.11;67.16
79729;BME280;69218;52.132;5.418;2023-07-09T06:58:17;101882.91;;;25.29;65.52
79729;BME280;69218;52.132;5.418;2023-07-09T07:00:43;101883.25;;;25.47;66.36
79729;BME280;69218;52.132;5.418;2023-07-09T07:03:10;101875.72;;;25.64;65.42
79729;BME280;69218;52.132;5.418;2023-07-09T07:05:37;101888.66;;;25.76;63.55
79729;BME280;69218;52.132;5.418;2023-07-09T07:08:03;101881.94;;;25.93;64.40
79729;BME280;69218;52.132;5.418;2023-07-09T07:10:30;101878.25;;;26.00;64.58
79729;BME280;69218;52.132;5.418;2023-07-09T07:12:57;101884.34;;;26.16;64.57
79729;BME280;69218;52.132;5.418;2023-07-09T07:15:23;101883.78;;;26.34;63.96
79729;BME280;69218;52.132;5.418;2023-07-09T07:17:50;101883.03;;;26.46;63.76
79729;BME280;69218;52.132;5.418;2023-07-09T07:20:17;101886.00;;;26.65;63.05
79729;BME280;69218;52.132;5.418;2023-07-09T07:22:44;101876.50;;;26.75;61.96
79729;BME280;69218;52.132;5.418;2023-07-09T07:25:12;101879.81;;;26.84;59.97
79729;BME280;69218;52.132;5.418;2023-07-09T07:27:39;101876.31;;;26.97;63.19
79729;BME280;69218;52.132;5.418;2023-07-09T07:30:06;101872.44;;;27.13;62.76
79729;BME280;69218;52.132;5.418;2023-07-09T07:32:44;101868.91;;;27.25;61.31
79729;BME280;69218;52.132;5.418;2023-07-09T07:35:12;101880.50;;;27.39;61.45
79729;BME280;69218;52.132;5.418;2023-07-09T07:37:42;101874.69;;;27.55;61.92
79729;BME280;69218;52.132;5.418;2023-07-09T07:40:10;101875.91;;;27.66;60.66
79729;BME280;69218;52.132;5.418;2023-07-09T07:42:36;101873.84;;;27.81;60.39
79729;BME280;69218;52.132;5.418;2023-07-09T07:45:04;101877.13;;;27.97;61.41
79729;BME280;69218;52.132;5.418;2023-07-09T07:47:30;101878.72;;;28.11;58.04
79729;BME280;69218;52.132;5.418;2023-07-09T07:49:57;101875.59;;;28.21;56.91
79729;BME280;69218;52.132;5.418;2023-07-09T07:52:23;101887.38;;;28.33;58.02
79729;BME280;69218;52.132;5.418;2023-07-09T07:54:51;101878.00;;;28.49;57.21
79729;BME280;69218;52.132;5.418;2023-07-09T07:57:18;101877.06;;;28.61;56.72
79729;BME280;69218;52.132;5.418;2023-07-09T07:59:45;101878.88;;;28.74;56.64
79729;BME280;69218;52.132;5.418;2023-07-09T08:02:13;101872.13;;;28.90;57.73
79729;BME280;69218;52.132;5.418;2023-07-09T08:04:40;101874.19;;;28.94;56.15
79729;BME280;69218;52.132;5.418;2023-07-09T08:07:09;101879.50;;;29.08;54.29
79729;BME280;69218;52.132;5.418;2023-07-09T08:09:35;101875.41;;;29.23;54.50
79729;BME280;69218;52.132;5.418;2023-07-09T08:12:03;101876.81;;;29.33;53.46
79729;BME280;69218;52.132;5.418;2023-07-09T08:14:41;101879.38;;;29.46;53.76
79729;BME280;69218;52.132;5.418;2023-07-09T08:17:07;101877.19;;;29.61;54.02
79729;BME280;69218;52.132;5.418;2023-07-09T08:19:50;101880.19;;;29.71;52.70
79729;BME280;69218;52.132;5.418;2023-07-09T08:22:16;101873.91;;;29.77;52.25
79729;BME280;69218;52.132;5.418;2023-07-09T08:24:43;101869.25;;;29.85;52.08
79729;BME280;69218;52.132;5.418;2023-07-09T08:27:10;101873.06;;;29.95;53.11
79729;BME280;69218;52.132;5.418;2023-07-09T08:29:36;101869.38;;;30.08;50.13
79729;BME280;69218;52.132;5.418;2023-07-09T08:32:03;101869.63;;;30.25;50.04
79729;BME280;69218;52.132;5.418;2023-07-09T08:34:30;101875.97;;;30.30;50.26
79729;BME280;69218;52.132;5.418;2023-07-09T08:36:56;101870.28;;;30.39;49.18
79729;BME280;69218;52.132;5.418;2023-07-09T08:39:23;101878.16;;;30.40;47.20
79729;BME280;69218;52.132;5.418;2023-07-09T08:42:02;101874.66;;;30.51;47.43
79729;BME280;69218;52.132;5.418;2023-07-09T08:47:16;101864.53;;;30.77;46.60
79729;BME280;69218;52.132;5.418;2023-07-09T08:54:55;101868.63;;;31.09;45.99
79729;BME280;69218;52.132;5.418;2023-07-09T08:57:29;101867.47;;;31.29;46.83
79729;BME280;69218;52.132;5.418;2023-07-09T09:00:17;101857.34;;;31.48;46.83
79729;BME280;69218;52.132;5.418;2023-07-09T09:02:58;101854.28;;;31.44;46.46
79729;BME280;69218;52.132;5.418;2023-07-09T09:05:25;101865.97;;;31.44;46.31
79729;BME280;69218;52.132;5.418;2023-07-09T09:08:11;101860.41;;;31.51;47.23
79729;BME280;69218;52.132;5.418;2023-07-09T09:10:47;101854.28;;;31.44;46.55
79729;BME280;69218;52.132;5.418;2023-07-09T09:13:16;101863.25;;;31.44;46.36
79729;BME280;69218;52.132;5.418;2023-07-09T09:15:46;101865.34;;;31.54;46.38
79729;BME280;69218;52.132;5.418;2023-07-09T09:18:26;101863.22;;;31.68;46.63
79729;BME280;69218;52.132;5.418;2023-07-09T09:21:15;101862.28;;;31.74;45.82
79729;BME280;69218;52.132;5.418;2023-07-09T09:23:50;101859.72;;;31.79;46.46
79729;BME280;69218;52.132;5.418;2023-07-09T09:26:30;101858.72;;;31.97;45.48
79729;BME280;69218;52.132;5.418;2023-07-09T09:28:58;101860.28;;;31.93;44.66
79729;BME280;69218;52.132;5.418;2023-07-09T09:31:27;101860.97;;;32.00;43.91
79729;BME280;69218;52.132;5.418;2023-07-09T09:33:57;101853.25;;;32.09;44.42
79729;BME280;69218;52.132;5.418;2023-07-09T09:36:26;101850.63;;;32.14;44.76
79729;BME280;69218;52.132;5.418;2023-07-09T09:38:53;101850.06;;;32.12;43.50
79729;BME280;69218;52.132;5.418;2023-07-09T09:41:25;101862.78;;;32.11;43.58
79729;BME280;69218;52.132;5.418;2023-07-09T09:43:54;101855.59;;;32.17;43.56
79729;BME280;69218;52.132;5.418;2023-07-09T09:46:25;101852.13;;;32.33;42.93
79729;BME280;69218;52.132;5.418;2023-07-09T09:48:55;101846.53;;;32.40;44.28
79729;BME280;69218;52.132;5.418;2023-07-09T09:51:23;101834.81;;;32.68;44.45
79729;BME280;69218;52.132;5.418;2023-07-09T09:53:51;101839.28;;;32.74;43.86
79729;BME280;69218;52.132;5.418;2023-07-09T09:56:27;101840.63;;;32.88;42.58
79729;BME280;69218;52.132;5.418;2023-07-09T09:58:56;101836.59;;;33.08;43.58
79729;BME280;69218;52.132;5.418;2023-07-09T10:01:27;101827.03;;;33.22;42.25
79729;BME280;69218;52.132;5.418;2023-07-09T10:04:00;101836.34;;;33.09;41.34
79729;BME280;69218;52.132;5.418;2023-07-09T10:06:40;101838.00;;;33.10;42.20
79729;BME280;69218;52.132;5.418;2023-07-09T10:09:19;101829.09;;;33.15;40.71
79729;BME280;69218;52.132;5.418;2023-07-09T10:12:04;101831.81;;;33.15;41.27
79729;BME280;69218;52.132;5.418;2023-07-09T10:14:46;101825.22;;;33.27;44.57
79729;BME280;69218;52.132;5.418;2023-07-09T10:17:23;101827.50;;;33.36;45.67
79729;BME280;69218;52.132;5.418;2023-07-09T10:20:28;101819.59;;;33.51;44.50
79729;BME280;69218;52.132;5.418;2023-07-09T10:25:51;101811.13;;;33.69;46.04
79729;BME280;69218;52.132;5.418;2023-07-09T10:33:28;101814.97;;;33.51;45.04
79729;BME280;69218;52.132;5.418;2023-07-09T10:39:14;101812.97;;;33.64;43.98
79729;BME280;69218;52.132;5.418;2023-07-09T10:41:43;101813.63;;;33.54;45.01
79729;BME280;69218;52.132;5.418;2023-07-09T10:44:18;101817.06;;;33.66;44.73
79729;BME280;69218;52.132;5.418;2023-07-09T10:46:50;101821.41;;;33.89;44.51
79729;BME280;69218;52.132;5.418;2023-07-09T10:49:19;101814.66;;;33.70;44.82
79729;BME280;69218;52.132;5.418;2023-07-09T10:51:51;101823.88;;;33.47;45.06
79729;BME280;69218;52.132;5.418;2023-07-09T10:54:39;101816.94;;;33.56;44.54
79729;BME280;69218;52.132;5.418;2023-07-09T10:57:24;101814.06;;;33.46;43.93
79729;BME280;69218;52.132;5.418;2023-07-09T10:59:51;101817.72;;;33.34;44.00
79729;BME280;69218;52.132;5.418;2023-07-09T11:02:26;101813.16;;;33.40;44.92
79729;BME280;69218;52.132;5.418;2023-07-09T11:04:58;101814.06;;;33.46;44.20
79729;BME280;69218;52.132;5.418;2023-07-09T11:07:36;101826.81;;;33.62;44.41
79729;BME280;69218;52.132;5.418;2023-07-09T11:10:12;101826.94;;;33.50;44.84
79729;BME280;69218;52.132;5.418;2023-07-09T11:12:45;101839.38;;;33.29;46.43
79729;BME280;69218;52.132;5.418;2023-07-09T11:15:16;101844.66;;;33.19;46.63
79729;BME280;69218;52.132;5.418;2023-07-09T11:17:46;101830.34;;;33.07;47.08
79729;BME280;69218;52.132;5.418;2023-07-09T11:20:24;101832.41;;;33.00;46.96
79729;BME280;69218;52.132;5.418;2023-07-09T11:22:54;101818.16;;;32.93;46.01
79729;BME280;69218;52.132;5.418;2023-07-09T11:25:31;101814.34;;;33.11;46.79
79729;BME280;69218;52.132;5.418;2023-07-09T11:28:05;101804.72;;;33.20;44.63
79729;BME280;69218;52.132;5.418;2023-07-09T11:30:32;101800.88;;;33.38;45.89
79729;BME280;69218;52.132;5.418;2023-07-09T11:33:02;101804.69;;;33.37;46.12
79729;BME280;69218;52.132;5.418;2023-07-09T11:35:51;101799.13;;;33.10;43.91
79729;BME280;69218;52.132;5.418;2023-07-09T11:38:21;101803.66;;;33.04;45.71
79729;BME280;69218;52.132;5.418;2023-07-09T11:40:50;101806.78;;;33.13;46.57
79729;BME280;69218;52.132;5.418;2023-07-09T11:43:35;101812.66;;;33.26;45.84
79729;BME280;69218;52.132;5.418;2023-07-09T11:46:16;101806.59;;;33.19;45.90
79729;BME280;69218;52.132;5.418;2023-07-09T11:48:44;101814.75;;;33.19;46.56
79729;BME280;69218;52.132;5.418;2023-07-09T11:51:17;101815.38;;;33.26;46.04
79729;BME280;69218;52.132;5.418;2023-07-09T11:53:48;101809.16;;;33.43;46.66
79729;BME280;69218;52.132;5.418;2023-07-09T11:56:18;101812.00;;;33.53;46.56
79729;BME280;69218;52.132;5.418;2023-07-09T11:58:58;101810.72;;;33.60;47.31
79729;BME280;69218;52.132;5.418;2023-07-09T12:01:33;101823.56;;;33.65;44.86
79729;BME280;69218;52.132;5.418;2023-07-09T12:04:02;101825.16;;;33.83;45.11
79729;BME280;69218;52.132;5.418;2023-07-09T12:06:32;101830.09;;;33.86;44.90
79729;BME280;69218;52.132;5.418;2023-07-09T12:08:59;101833.50;;;33.54;44.14
79729;BME280;69218;52.132;5.418;2023-07-09T12:14:04;101838.56;;;33.29;46.25
79729;BME280;69218;52.132;5.418;2023-07-09T12:16:37;101848.94;;;33.15;44.53
79729;BME280;69218;52.132;5.418;2023-07-09T12:19:04;101841.72;;;32.87;45.60
79729;BME280;69218;52.132;5.418;2023-07-09T12:21:33;101849.16;;;32.80;44.08
79729;BME280;69218;52.132;5.418;2023-07-09T12:24:01;101856.75;;;32.78;44.06
79729;BME280;69218;52.132;5.418;2023-07-09T12:26:31;101855.41;;;32.64;44.28
79729;BME280;69218;52.132;5.418;2023-07-09T12:28:58;101857.63;;;32.50;44.71
79729;BME280;69218;52.132;5.418;2023-07-09T12:31:27;101858.84;;;32.42;46.57
79729;BME280;69218;52.132;5.418;2023-07-09T12:33:55;101860.25;;;32.33;46.67
79729;BME280;69218;52.132;5.418;2023-07-09T12:36:23;101846.47;;;32.23;45.14
79729;BME280;69218;52.132;5.418;2023-07-09T12:38:53;101834.56;;;32.24;45.62
79729;BME280;69218;52.132;5.418;2023-07-09T12:41:35;101832.75;;;32.30;43.89
79729;BME280;69218;52.132;5.418;2023-07-09T12:44:02;101840.22;;;31.94;44.55
79729;BME280;69218;52.132;5.418;2023-07-09T12:46:31;101847.41;;;31.88;45.65
79729;BME280;69218;52.132;5.418;2023-07-09T12:48:58;101850.69;;;32.02;45.61
79729;BME280;69218;52.132;5.418;2023-07-09T12:51:28;101854.22;;;32.03;46.09
79729;BME280;69218;52.132;5.418;2023-07-09T12:54:13;101851.34;;;32.49;44.62
79729;BME280;69218;52.132;5.418;2023-07-09T12:56:41;101843.78;;;32.68;44.49
79729;BME280;69218;52.132;5.418;2023-07-09T12:59:25;101844.31;;;32.82;45.12
79729;BME280;69218;52.132;5.418;2023-07-09T13:02:12;101829.19;;;32.86;45.07
79729;BME280;69218;52.132;5.418;2023-07-09T13:04:41;101838.63;;;32.67;43.67
79729;BME280;69218;52.132;5.418;2023-07-09T13:07:27;101843.91;;;32.73;45.73
79729;BME280;69218;52.132;5.418;2023-07-09T13:09:56;101842.41;;;32.66;43.57
79729;BME280;69218;52.132;5.418;2023-07-09T13:12:31;101841.16;;;32.57;46.72
79729;BME280;69218;52.132;5.418;2023-07-09T13:14:58;101844.88;;;32.67;43.65
79729;BME280;69218;52.132;5.418;2023-07-09T13:17:30;101842.56;;;32.76;42.89
79729;BME280;69218;52.132;5.418;2023-07-09T13:19:57;101842.56;;;32.76;42.45
79729;BME280;69218;52.132;5.418;2023-07-09T13:22:28;101859.28;;;32.68;41.31
79729;BME280;69218;52.132;5.418;2023-07-09T13:24:57;101866.28;;;32.64;42.76
79729;BME280;69218;52.132;5.418;2023-07-09T13:27:24;101857.38;;;32.51;43.25